Time;durP1;ratioP1;P1;durP2;ratioP2;P2;SDS_P1;SDS_P2;PMS_P1;PMS_P2;Temp;Humidity;BMP_temperature;BMP_pressure;BME280_temperature;BME280_humidity;BME280_pressure;Samples;Min_cycle;Max_cycle;Signal;HPM_P1;HPM_P2
2024/04/02 00:00:29;;;;;;;;;;;;;;;3.90;62.69;94278.22;4933729;28;20136;-69
2024/04/02 00:02:54;;;;;;;;;;;;;;;3.61;63.37;94276.16;4937801;28;19926;-69
2024/04/02 00:05:19;;;;;;;;;;;;;;;3.04;65.55;94276.00;4937438;29;20226;-69
2024/04/02 00:07:44;;;;;;;;;;;;;;;3.07;64.69;94278.31;4935132;28;19930;-68
2024/04/02 00:10:10;;;;;;;;;;;;;;;3.23;64.10;94274.84;4938767;28;20333;-68
2024/04/02 00:12:35;;;;;;;;;;;;;;;3.37;63.90;94283.88;4941211;29;20319;-68
2024/04/02 00:15:01;;;;;;;;;;;;;;;3.89;62.85;94281.84;4940654;28;20046;-68
2024/04/02 00:17:26;;;;;;;;;;;;;;;3.74;62.95;94284.34;4937797;28;20439;-68
2024/04/02 00:19:51;;;;;;;;;;;;;;;3.93;61.63;94287.59;4940680;28;19931;-68
2024/04/02 00:22:17;;;;;;;;;;;;;;;2.75;65.32;94288.59;4939855;28;20416;-69
2024/04/02 00:24:42;;;;;;;;;;;;;;;3.76;62.50;94292.06;4940683;28;20376;-68
2024/04/02 00:27:07;;;;;;;;;;;;;;;3.53;63.52;94298.03;4940969;29;20035;-69
2024/04/02 00:29:32;;;;;;;;;;;;;;;3.85;61.99;94291.09;4940858;29;19927;-68
2024/04/02 00:31:58;;;;;;;;;;;;;;;3.75;62.04;94307.06;4940665;28;19926;-68
2024/04/02 00:34:23;;;;;;;;;;;;;;;3.50;63.18;94296.56;4940507;28;19926;-69
2024/04/02 00:36:48;;;;;;;;;;;;;;;3.79;61.85;94295.22;4941223;28;19922;-68
2024/04/02 00:39:13;;;;;;;;;;;;;;;3.49;62.74;94296.72;4940556;28;19926;-68
2024/04/02 00:41:39;;;;;;;;;;;;;;;2.99;64.42;94304.59;4940830;29;20118;-68
2024/04/02 00:44:04;;;;;;;;;;;;;;;3.09;64.90;94305.25;4939588;28;20275;-68
2024/04/02 00:46:29;;;;;;;;;;;;;;;3.29;63.11;94305.75;4940314;28;19930;-68
2024/04/02 00:48:54;;;;;;;;;;;;;;;3.23;64.00;94306.41;4940327;28;20373;-67
2024/04/02 00:51:20;;;;;;;;;;;;;;;2.69;65.26;94314.72;4941353;28;19981;-67
2024/04/02 00:53:45;;;;;;;;;;;;;;;2.51;66.12;94313.84;4939765;29;19930;-67
2024/04/02 00:56:10;;;;;;;;;;;;;;;2.45;67.00;94324.19;4939370;28;20146;-67
2024/04/02 00:58:35;;;;;;;;;;;;;;;2.77;66.45;94310.31;4939488;28;20374;-67
2024/04/02 01:01:00;;;;;;;;;;;;;;;2.85;66.00;94317.38;4935386;29;20240;-67
2024/04/02 01:03:26;;;;;;;;;;;;;;;2.90;65.72;94319.53;4941180;28;20017;-67
2024/04/02 01:05:51;;;;;;;;;;;;;;;3.36;63.44;94318.22;4941201;28;20408;-67
2024/04/02 01:08:16;;;;;;;;;;;;;;;3.33;62.91;94327.28;4939235;28;20241;-67
2024/04/02 01:10:41;;;;;;;;;;;;;;;3.60;62.65;94329.78;4940524;28;19949;-67
2024/04/02 01:13:07;;;;;;;;;;;;;;;3.35;63.11;94333.22;4939608;29;19970;-67
2024/04/02 01:15:32;;;;;;;;;;;;;;;3.36;62.53;94326.13;4940247;28;20312;-67
2024/04/02 01:17:57;;;;;;;;;;;;;;;3.58;62.71;94331.75;4941108;29;19926;-67
2024/04/02 01:20:23;;;;;;;;;;;;;;;2.46;65.67;94334.53;4939640;28;19994;-67
2024/04/02 01:22:49;;;;;;;;;;;;;;;2.78;65.02;94338.25;4940278;28;19966;-67
2024/04/02 01:25:18;;;;;;;;;;;;;;;3.08;64.22;94337.78;4939148;29;19930;-67
2024/04/02 01:27:43;;;;;;;;;;;;;;;3.06;63.45;94347.63;4940481;28;20021;-67
2024/04/02 01:30:08;;;;;;;;;;;;;;;3.15;63.55;94341.44;4940558;28;20015;-67
2024/04/02 01:32:33;;;;;;;;;;;;;;;2.09;67.46;94346.19;4936394;29;19957;-67
2024/04/02 01:34:59;;;;;;;;;;;;;;;2.75;64.90;94348.22;4940305;28;19956;-67
2024/04/02 01:37:24;;;;;;;;;;;;;;;3.07;63.14;94336.16;4941095;28;20643;-67
2024/04/02 01:39:49;;;;;;;;;;;;;;;2.65;64.99;94353.63;4940733;28;19933;-67
2024/04/02 01:42:15;;;;;;;;;;;;;;;2.30;66.44;94351.03;4940482;28;19985;-67
2024/04/02 01:44:40;;;;;;;;;;;;;;;2.44;65.22;94356.66;4940521;28;20338;-67
2024/04/02 01:47:05;;;;;;;;;;;;;;;2.69;65.55;94356.78;4939540;28;19955;-67
2024/04/02 01:49:30;;;;;;;;;;;;;;;2.57;65.13;94357.06;4939991;29;19930;-67
2024/04/02 01:51:55;;;;;;;;;;;;;;;2.69;64.47;94364.66;4939168;28;19934;-67
2024/04/02 01:54:21;;;;;;;;;;;;;;;2.41;64.81;94362.25;4940119;28;19926;-67
2024/04/02 01:56:46;;;;;;;;;;;;;;;1.42;69.52;94369.34;4939920;29;20047;-67
2024/04/02 01:59:11;;;;;;;;;;;;;;;2.19;66.71;94377.56;4938579;28;19930;-67
2024/04/02 02:01:36;;;;;;;;;;;;;;;1.94;67.93;94364.31;4933603;29;20009;-67
2024/04/02 02:04:02;;;;;;;;;;;;;;;2.59;64.76;94367.41;4940000;28;19962;-67
2024/04/02 02:06:27;;;;;;;;;;;;;;;1.83;66.28;94373.25;4939638;28;19931;-67
2024/04/02 02:08:52;;;;;;;;;;;;;;;2.53;64.55;94377.56;4938658;29;19945;-68
2024/04/02 02:11:17;;;;;;;;;;;;;;;2.19;65.17;94381.03;4939316;28;20304;-68
2024/04/02 02:13:43;;;;;;;;;;;;;;;1.41;67.90;94390.47;4939976;29;20424;-67
2024/04/02 02:16:08;;;;;;;;;;;;;;;2.37;65.74;94383.59;4950456;28;19934;-67
2024/04/02 02:18:33;;;;;;;;;;;;;;;2.30;65.55;94386.97;4938819;28;20000;-67
2024/04/02 02:20:59;;;;;;;;;;;;;;;2.58;65.19;94394.69;4939513;28;19930;-67
2024/04/02 02:23:24;;;;;;;;;;;;;;;2.83;64.31;94392.97;4939746;28;19980;-68
2024/04/02 02:25:50;;;;;;;;;;;;;;;3.01;63.08;94390.22;4936980;28;19926;-68
2024/04/02 02:28:15;;;;;;;;;;;;;;;3.14;61.83;94379.22;4939570;28;19932;-68
2024/04/02 02:30:40;;;;;;;;;;;;;;;2.69;63.67;94389.13;4938969;28;19970;-68
2024/04/02 02:33:05;;;;;;;;;;;;;;;3.22;61.64;94396.00;4939769;28;20154;-68
2024/04/02 02:35:31;;;;;;;;;;;;;;;3.37;62.50;94393.56;4939323;28;20281;-68
2024/04/02 02:37:56;;;;;;;;;;;;;;;3.47;61.60;94399.50;4939643;28;19981;-68
2024/04/02 02:40:21;;;;;;;;;;;;;;;3.98;59.22;94403.78;4938789;28;19930;-68
2024/04/02 02:42:46;;;;;;;;;;;;;;;3.26;62.23;94402.56;4936300;28;19926;-68
2024/04/02 02:45:12;;;;;;;;;;;;;;;3.44;61.15;94407.72;4939654;29;19980;-68
2024/04/02 02:47:37;;;;;;;;;;;;;;;2.83;61.74;94407.91;4940449;28;19957;-68
2024/04/02 02:50:03;;;;;;;;;;;;;;;2.44;64.61;94417.94;4942499;28;19926;-68
2024/04/02 02:52:28;;;;;;;;;;;;;;;2.95;62.66;94419.78;4938868;28;20022;-68
2024/04/02 02:54:53;;;;;;;;;;;;;;;3.17;62.86;94415.72;4940173;28;20005;-68
2024/04/02 02:57:19;;;;;;;;;;;;;;;3.45;61.19;94411.19;4940412;28;19934;-68
2024/04/02 02:59:44;;;;;;;;;;;;;;;3.47;60.51;94404.78;4936889;28;20526;-68
2024/04/02 03:02:09;;;;;;;;;;;;;;;3.29;60.30;94408.34;4935650;28;20164;-68
2024/04/02 03:04:34;;;;;;;;;;;;;;;3.02;61.90;94427.84;4939726;28;20258;-68
2024/04/02 03:07:00;;;;;;;;;;;;;;;3.26;60.26;94418.34;4940701;28;19953;-68
2024/04/02 03:09:25;;;;;;;;;;;;;;;3.43;60.11;94425.31;4939169;28;19934;-69
2024/04/02 03:11:50;;;;;;;;;;;;;;;3.14;61.07;94420.50;4938093;28;20449;-69
2024/04/02 03:14:15;;;;;;;;;;;;;;;3.16;60.68;94429.84;4941145;28;19981;-69
2024/04/02 03:16:41;;;;;;;;;;;;;;;3.24;60.48;94430.88;4939948;28;19926;-69
2024/04/02 03:19:06;;;;;;;;;;;;;;;3.24;60.88;94430.88;4938754;28;20035;-69
2024/04/02 03:21:32;;;;;;;;;;;;;;;3.38;60.39;94414.47;4938851;29;20652;-69
2024/04/02 03:23:57;;;;;;;;;;;;;;;3.45;60.04;94424.34;4940810;28;19930;-69
2024/04/02 03:26:22;;;;;;;;;;;;;;;3.38;60.12;94424.97;4942028;28;19930;-69
2024/04/02 03:28:49;;;;;;;;;;;;;;;3.43;59.23;94427.94;4938581;29;20401;-69
2024/04/02 03:31:14;;;;;;;;;;;;;;;3.38;59.66;94438.13;4938589;28;20411;-69
2024/04/02 03:33:40;;;;;;;;;;;;;;;2.97;61.30;94438.03;4942999;28;19981;-69
2024/04/02 03:36:05;;;;;;;;;;;;;;;3.50;59.72;94432.59;4940370;28;20415;-69
2024/04/02 03:38:31;;;;;;;;;;;;;;;3.37;60.26;94435.66;4939025;28;19953;-69
2024/04/02 03:41:06;;;;;;;;;;;;;;;3.21;61.11;94439.91;4938539;28;19926;-69
2024/04/02 03:43:31;;;;;;;;;;;;;;;2.50;63.77;94440.13;4937694;28;20430;-68
2024/04/02 03:45:56;;;;;;;;;;;;;;;3.26;60.91;94431.50;4942375;28;19926;-68
2024/04/02 03:48:21;;;;;;;;;;;;;;;3.02;61.65;94443.63;4941811;28;20036;-69
2024/04/02 03:50:48;;;;;;;;;;;;;;;3.41;60.29;94437.78;4941927;28;20009;-69
2024/04/02 03:53:13;;;;;;;;;;;;;;;2.75;61.53;94442.84;4941850;29;20246;-69
2024/04/02 03:55:39;;;;;;;;;;;;;;;3.06;61.64;94452.84;4942139;28;19930;-69
2024/04/02 03:58:04;;;;;;;;;;;;;;;3.08;61.84;94445.63;4942737;29;20025;-69
2024/04/02 04:00:30;;;;;;;;;;;;;;;2.22;63.45;94450.81;4940736;28;20447;-69
2024/04/02 04:02:55;;;;;;;;;;;;;;;3.00;61.90;94449.03;4941090;28;19933;-69
2024/04/02 04:05:20;;;;;;;;;;;;;;;1.98;65.89;94452.28;4942397;28;19937;-69
2024/04/02 04:07:46;;;;;;;;;;;;;;;2.90;62.65;94449.16;4941941;28;20236;-69
2024/04/02 04:10:11;;;;;;;;;;;;;;;2.96;62.96;94449.53;4942395;28;19973;-69
2024/04/02 04:12:36;;;;;;;;;;;;;;;3.25;61.99;94443.84;4941949;28;20222;-69
2024/04/02 04:15:01;;;;;;;;;;;;;;;3.51;61.06;94452.66;4941955;28;19923;-68
2024/04/02 04:17:26;;;;;;;;;;;;;;;3.16;62.18;94460.59;4942420;29;19934;-69
2024/04/02 04:19:52;;;;;;;;;;;;;;;3.19;62.90;94459.47;4941789;28;20584;-67
2024/04/02 04:22:17;;;;;;;;;;;;;;;3.11;63.06;94462.88;4941250;28;19926;-67
2024/04/02 04:24:42;;;;;;;;;;;;;;;4.09;59.72;94454.47;4941987;29;20311;-67
2024/04/02 04:27:07;;;;;;;;;;;;;;;3.70;61.68;94455.97;4941646;28;19965;-67
2024/04/02 04:29:33;;;;;;;;;;;;;;;3.74;60.74;94462.56;4942413;29;19933;-67
2024/04/02 04:31:58;;;;;;;;;;;;;;;3.97;60.26;94461.88;4941513;28;20388;-67
2024/04/02 04:34:23;;;;;;;;;;;;;;;4.07;59.74;94458.09;4938670;28;19927;-67
2024/04/02 04:36:48;;;;;;;;;;;;;;;3.93;60.26;94462.22;4942179;28;20026;-67
2024/04/02 04:39:14;;;;;;;;;;;;;;;3.76;60.77;94464.03;4956112;28;19930;-67
2024/04/02 04:41:39;;;;;;;;;;;;;;;3.23;62.68;94476.56;4940056;28;19926;-67
2024/04/02 04:44:05;;;;;;;;;;;;;;;3.69;61.88;94473.56;4937328;28;20443;-67
2024/04/02 04:46:30;;;;;;;;;;;;;;;2.99;62.48;94481.56;4941408;28;19930;-67
2024/04/02 04:48:56;;;;;;;;;;;;;;;2.96;63.23;94471.38;4941599;29;20013;-67
2024/04/02 04:51:21;;;;;;;;;;;;;;;2.36;66.11;94473.88;4939716;28;19926;-67
2024/04/02 04:53:47;;;;;;;;;;;;;;;3.22;63.40;94475.75;4941263;28;19926;-67
2024/04/02 04:56:12;;;;;;;;;;;;;;;3.68;62.17;94480.63;4940806;28;19934;-67
2024/04/02 04:58:37;;;;;;;;;;;;;;;3.38;62.59;94480.25;4939981;28;19926;-67
2024/04/02 05:01:03;;;;;;;;;;;;;;;3.17;64.20;94484.09;4935276;29;20107;-67
2024/04/02 05:03:28;;;;;;;;;;;;;;;2.46;67.10;94486.09;4940589;28;19931;-67
2024/04/02 05:06:06;;;;;;;;;;;;;;;2.35;68.21;94480.09;4941803;29;19929;-67
2024/04/02 05:08:33;;;;;;;;;;;;;;;2.81;66.08;94484.31;4940687;28;19932;-67
2024/04/02 05:10:59;;;;;;;;;;;;;;;3.87;62.45;94485.75;4940680;28;19926;-67
2024/04/02 05:13:24;;;;;;;;;;;;;;;3.34;63.46;94486.81;4940925;29;19922;-67
2024/04/02 05:15:49;;;;;;;;;;;;;;;3.39;63.88;94502.94;4940643;28;20514;-67
2024/04/02 05:18:14;;;;;;;;;;;;;;;2.03;66.51;94507.78;4940057;28;19922;-67
2024/04/02 05:20:40;;;;;;;;;;;;;;;2.52;67.49;94511.75;4940732;28;19934;-67
2024/04/02 05:23:05;;;;;;;;;;;;;;;2.36;67.94;94515.94;4940334;28;20300;-67
2024/04/02 05:25:31;;;;;;;;;;;;;;;1.95;70.22;94507.72;4939685;28;20359;-67
2024/04/02 05:27:56;;;;;;;;;;;;;;;2.16;67.56;94517.91;4940302;28;19932;-67
2024/04/02 05:30:21;;;;;;;;;;;;;;;2.16;68.43;94522.31;4940083;28;20392;-67
2024/04/02 05:32:47;;;;;;;;;;;;;;;2.34;68.37;94517.88;4940967;29;19931;-67
2024/04/02 05:35:12;;;;;;;;;;;;;;;1.72;71.40;94513.41;4939966;28;20146;-67
2024/04/02 05:37:38;;;;;;;;;;;;;;;2.09;69.14;94515.06;4940564;29;20203;-67
2024/04/02 05:40:06;;;;;;;;;;;;;;;2.16;67.46;94527.56;4940449;28;20571;-67
2024/04/02 05:42:31;;;;;;;;;;;;;;;2.65;67.77;94521.81;4937372;28;19934;-67
2024/04/02 05:44:56;;;;;;;;;;;;;;;2.12;68.99;94524.44;4940896;29;20008;-67
2024/04/02 05:47:22;;;;;;;;;;;;;;;2.68;67.90;94521.53;4939114;28;19930;-67
2024/04/02 05:49:48;;;;;;;;;;;;;;;2.60;66.66;94535.44;4940972;28;20319;-67
2024/04/02 05:52:13;;;;;;;;;;;;;;;2.27;69.31;94537.84;4939186;28;20175;-67
2024/04/02 05:54:39;;;;;;;;;;;;;;;2.46;68.11;94546.50;4939224;28;20100;-67
2024/04/02 05:57:04;;;;;;;;;;;;;;;2.42;68.49;94564.41;4940283;28;19934;-67
2024/04/02 05:59:29;;;;;;;;;;;;;;;1.74;71.18;94561.34;4936552;28;19927;-67
2024/04/02 06:01:54;;;;;;;;;;;;;;;2.81;67.33;94546.56;4938608;29;20125;-67
2024/04/02 06:04:20;;;;;;;;;;;;;;;1.87;69.26;94551.28;4939420;28;19931;-67
2024/04/02 06:06:48;;;;;;;;;;;;;;;2.29;69.65;94556.06;4938505;28;20016;-67
2024/04/02 06:09:13;;;;;;;;;;;;;;;3.06;66.61;94560.66;4935972;29;19930;-67
2024/04/02 06:11:38;;;;;;;;;;;;;;;3.30;65.55;94559.13;4940137;28;19997;-67
2024/04/02 06:14:03;;;;;;;;;;;;;;;3.49;64.60;94552.81;4940204;29;19926;-67
2024/04/02 06:16:29;;;;;;;;;;;;;;;3.28;65.40;94556.66;4939434;28;19954;-67
2024/04/02 06:18:54;;;;;;;;;;;;;;;3.30;65.99;94567.00;4939411;28;19973;-67
2024/04/02 06:21:19;;;;;;;;;;;;;;;3.27;64.44;94556.81;4939792;28;19926;-67
2024/04/02 06:23:45;;;;;;;;;;;;;;;2.84;66.46;94562.88;4939936;28;20008;-67
2024/04/02 06:26:12;;;;;;;;;;;;;;;2.24;67.82;94572.28;4938027;28;19961;-67
2024/04/02 06:28:38;;;;;;;;;;;;;;;2.79;67.00;94567.75;4939337;28;19926;-67
2024/04/02 06:31:03;;;;;;;;;;;;;;;3.10;65.57;94562.00;4939907;28;20529;-67
2024/04/02 06:33:28;;;;;;;;;;;;;;;2.75;67.38;94561.97;4939661;28;19993;-67
2024/04/02 06:35:53;;;;;;;;;;;;;;;2.49;68.18;94575.94;4939317;28;20070;-67
2024/04/02 06:38:19;;;;;;;;;;;;;;;1.60;70.71;94571.38;4939762;28;20186;-67
2024/04/02 06:40:44;;;;;;;;;;;;;;;1.53;71.54;94574.72;4939809;29;19933;-68
2024/04/02 06:43:09;;;;;;;;;;;;;;;2.91;68.18;94579.66;4938918;28;19926;-68
2024/04/02 06:45:35;;;;;;;;;;;;;;;2.41;69.19;94585.56;4939386;28;19989;-69
2024/04/02 06:48:01;;;;;;;;;;;;;;;2.96;66.12;94596.78;4938843;28;19930;-69
2024/04/02 06:50:26;;;;;;;;;;;;;;;2.58;67.06;94573.38;4938883;28;20439;-68
2024/04/02 06:52:51;;;;;;;;;;;;;;;2.93;66.39;94589.19;4939825;28;19977;-69
2024/04/02 06:55:17;;;;;;;;;;;;;;;1.82;71.90;94592.94;4938324;28;19960;-69
2024/04/02 06:57:42;;;;;;;;;;;;;;;1.99;71.35;94591.28;4939474;29;19927;-68
2024/04/02 07:00:07;;;;;;;;;;;;;;;2.07;70.88;94585.28;4933990;28;20013;-68
2024/04/02 07:02:33;;;;;;;;;;;;;;;2.71;68.58;94588.72;4938390;28;20450;-68
2024/04/02 07:04:58;;;;;;;;;;;;;;;2.15;70.36;94600.28;4938141;29;19937;-69
2024/04/02 07:07:24;;;;;;;;;;;;;;;2.17;70.79;94592.28;4936683;28;19932;-69
2024/04/02 07:09:49;;;;;;;;;;;;;;;2.24;71.15;94595.91;4938416;28;20489;-69
2024/04/02 07:12:14;;;;;;;;;;;;;;;2.22;70.09;94597.88;4939032;28;19930;-69
2024/04/02 07:14:39;;;;;;;;;;;;;;;2.76;68.95;94597.78;4937405;28;19945;-68
2024/04/02 07:17:05;;;;;;;;;;;;;;;2.10;72.16;94610.41;4938556;28;19938;-68
2024/04/02 07:19:30;;;;;;;;;;;;;;;2.01;71.90;94614.78;4937383;28;20383;-69
2024/04/02 07:21:55;;;;;;;;;;;;;;;1.86;71.63;94609.19;4938232;28;20308;-69
2024/04/02 07:24:20;;;;;;;;;;;;;;;1.99;71.41;94619.34;4935773;29;19930;-69
2024/04/02 07:26:46;;;;;;;;;;;;;;;1.80;71.99;94618.47;4936324;28;20386;-69
2024/04/02 07:29:11;;;;;;;;;;;;;;;2.23;70.98;94625.78;4939178;28;19953;-68
2024/04/02 07:31:36;;;;;;;;;;;;;;;2.08;71.96;94615.81;4938484;28;19933;-69
2024/04/02 07:34:02;;;;;;;;;;;;;;;2.08;72.01;94615.81;4938350;28;19930;-69
2024/04/02 07:36:28;;;;;;;;;;;;;;;2.31;70.98;94633.75;4932552;28;19927;-69
2024/04/02 07:38:53;;;;;;;;;;;;;;;2.62;68.69;94617.56;4937951;28;19930;-69
2024/04/02 07:41:18;;;;;;;;;;;;;;;2.73;68.72;94628.84;4937871;29;19930;-69
2024/04/02 07:43:44;;;;;;;;;;;;;;;2.87;68.21;94630.06;4937229;28;19930;-69
2024/04/02 07:46:09;;;;;;;;;;;;;;;2.96;68.08;94639.66;4938073;28;20042;-69
2024/04/02 07:48:34;;;;;;;;;;;;;;;3.33;67.33;94640.38;4915559;29;20018;-69
2024/04/02 07:51:07;;;;;;;;;;;;;;;3.84;65.33;94630.91;4933426;29;19926;-68
2024/04/02 07:53:32;;;;;;;;;;;;;;;3.39;65.87;94638.91;4919564;29;20466;-68
2024/04/02 07:55:57;;;;;;;;;;;;;;;2.70;68.77;94637.03;4917136;28;19935;-68
2024/04/02 07:58:22;;;;;;;;;;;;;;;2.96;67.54;94638.84;4918934;28;20419;-68
2024/04/02 08:00:47;;;;;;;;;;;;;;;3.27;65.43;94641.81;4916052;29;19919;-67
2024/04/02 08:03:13;;;;;;;;;;;;;;;2.69;65.92;94636.19;4919367;28;19931;-67
2024/04/02 08:05:38;;;;;;;;;;;;;;;3.51;64.50;94642.94;4921929;29;19926;-67
2024/04/02 08:08:04;;;;;;;;;;;;;;;3.50;65.42;94646.56;4919371;28;19970;-67
2024/04/02 08:10:29;;;;;;;;;;;;;;;3.20;67.08;94646.03;4921560;28;19935;-67
2024/04/02 08:12:54;;;;;;;;;;;;;;;3.75;63.73;94644.06;4932641;28;19981;-67
2024/04/02 08:15:19;;;;;;;;;;;;;;;3.60;64.84;94654.34;4937605;28;20336;-67
2024/04/02 08:17:45;;;;;;;;;;;;;;;3.39;64.67;94659.97;4934557;28;19931;-67
2024/04/02 08:20:10;;;;;;;;;;;;;;;2.67;65.78;94689.88;4921582;29;19926;-67
2024/04/02 08:22:35;;;;;;;;;;;;;;;2.75;66.43;94668.91;4922116;28;20572;-67
2024/04/02 08:25:00;;;;;;;;;;;;;;;3.36;65.33;94674.28;4936237;28;19954;-67
2024/04/02 08:27:26;;;;;;;;;;;;;;;2.64;66.69;94676.09;4939464;28;19930;-67
2024/04/02 08:29:51;;;;;;;;;;;;;;;3.28;66.72;94668.97;4940745;28;19958;-67
2024/04/02 08:32:16;;;;;;;;;;;;;;;3.50;63.81;94666.81;4924074;28;19926;-67
2024/04/02 08:34:42;;;;;;;;;;;;;;;3.94;61.41;94668.47;4917845;28;20348;-67
2024/04/02 08:37:07;;;;;;;;;;;;;;;3.75;61.08;94680.09;4923129;29;20475;-67
2024/04/02 08:39:33;;;;;;;;;;;;;;;4.04;58.93;94669.16;4933989;28;19932;-68
2024/04/02 08:41:59;;;;;;;;;;;;;;;3.84;58.38;94673.84;4947286;28;20231;-68
2024/04/02 08:44:24;;;;;;;;;;;;;;;3.72;60.22;94677.75;4941501;28;19954;-68
2024/04/02 08:46:49;;;;;;;;;;;;;;;3.20;60.41;94687.34;4934127;28;19930;-68
2024/04/02 08:49:14;;;;;;;;;;;;;;;2.34;64.10;94679.91;4916519;29;19950;-68
2024/04/02 08:51:40;;;;;;;;;;;;;;;2.34;64.29;94695.66;4919982;29;20368;-68
2024/04/02 08:54:05;;;;;;;;;;;;;;;2.85;63.05;94698.59;4919111;28;19961;-68
2024/04/02 08:56:30;;;;;;;;;;;;;;;2.16;64.97;94708.78;4921089;28;19926;-68
2024/04/02 08:58:55;;;;;;;;;;;;;;;3.24;62.61;94694.78;4922006;28;20283;-68
2024/04/02 09:01:21;;;;;;;;;;;;;;;3.49;61.23;94704.63;4919170;29;20059;-69
2024/04/02 09:03:46;;;;;;;;;;;;;;;3.54;60.35;94689.22;4913930;29;19938;-69
2024/04/02 09:06:11;;;;;;;;;;;;;;;3.42;62.13;94692.06;4921089;29;19930;-69
2024/04/02 09:08:46;;;;;;;;;;;;;;;2.31;63.35;94704.66;4918364;28;19938;-69
2024/04/02 09:11:11;;;;;;;;;;;;;;;2.97;62.97;94722.00;4935205;28;20573;-69
2024/04/02 09:13:38;;;;;;;;;;;;;;;2.86;62.95;94707.31;4947160;28;20173;-69
2024/04/02 09:16:03;;;;;;;;;;;;;;;3.15;62.77;94716.72;4927367;28;19954;-69
2024/04/02 09:18:31;;;;;;;;;;;;;;;3.51;59.96;94721.91;4923061;28;19923;-69
2024/04/02 09:20:59;;;;;;;;;;;;;;;4.01;60.14;94710.81;4943774;28;19929;-69
2024/04/02 09:23:24;;;;;;;;;;;;;;;3.66;63.09;94718.69;4937906;28;19939;-69
2024/04/02 09:25:49;;;;;;;;;;;;;;;3.19;61.67;94725.97;4921196;29;19962;-69
2024/04/02 09:28:14;;;;;;;;;;;;;;;3.95;61.04;94709.63;4920273;29;19923;-69
2024/04/02 09:30:39;;;;;;;;;;;;;;;4.73;60.08;94714.72;4927490;28;19988;-69
2024/04/02 09:33:06;;;;;;;;;;;;;;;5.28;59.33;94706.38;4941600;28;20388;-69
2024/04/02 09:35:50;;;;;;;;;;;;;;;4.57;60.32;94719.03;4947296;28;20029;-69
2024/04/02 09:38:16;;;;;;;;;;;;;;;4.38;57.68;94720.13;4941071;28;20441;-69
2024/04/02 09:40:42;;;;;;;;;;;;;;;4.23;59.09;94734.91;4919628;29;19918;-69
2024/04/02 09:43:08;;;;;;;;;;;;;;;4.23;57.31;94729.63;4920032;28;20495;-69
2024/04/02 09:45:33;;;;;;;;;;;;;;;4.50;58.33;94715.38;4920381;29;20221;-69
2024/04/02 09:47:59;;;;;;;;;;;;;;;4.50;56.00;94723.28;4920800;28;19931;-69
2024/04/02 09:50:24;;;;;;;;;;;;;;;4.55;56.61;94721.00;4918768;28;19923;-69
2024/04/02 09:52:49;;;;;;;;;;;;;;;4.63;56.75;94727.25;4921127;29;20418;-70
2024/04/02 09:55:15;;;;;;;;;;;;;;;5.13;56.43;94719.41;4933489;28;19927;-70
2024/04/02 09:57:40;;;;;;;;;;;;;;;4.99;54.34;94724.31;4949998;28;20058;-70
2024/04/02 10:00:06;;;;;;;;;;;;;;;4.14;56.21;94750.69;4919377;28;19989;-69
2024/04/02 10:02:33;;;;;;;;;;;;;;;3.90;57.65;94731.16;4924218;28;19977;-69
2024/04/02 10:04:58;;;;;;;;;;;;;;;2.94;60.05;94736.28;4940625;28;20260;-69
2024/04/02 10:07:27;;;;;;;;;;;;;;;4.42;57.37;94739.09;4931210;28;20429;-69
2024/04/02 10:10:00;;;;;;;;;;;;;;;5.02;54.54;94739.00;4916399;29;20181;-68
2024/04/02 10:12:26;;;;;;;;;;;;;;;4.71;54.91;94745.72;4919650;28;20611;-68
2024/04/02 10:14:51;;;;;;;;;;;;;;;3.61;57.58;94742.84;4918830;28;19933;-68
2024/04/02 10:17:16;;;;;;;;;;;;;;;3.68;56.95;94743.06;4920645;29;20071;-69
2024/04/02 10:19:48;;;;;;;;;;;;;;;4.05;56.72;94744.56;4918700;29;20400;-68
2024/04/02 10:22:24;;;;;;;;;;;;;;;2.96;58.41;94749.28;4920408;29;19927;-68
2024/04/02 10:25:01;;;;;;;;;;;;;;;4.58;56.12;94727.75;4938736;29;20418;-68
2024/04/02 10:27:32;;;;;;;;;;;;;;;4.78;55.69;94740.63;4939108;28;19965;-68
2024/04/02 10:29:57;;;;;;;;;;;;;;;4.82;54.97;94734.88;4938029;29;19929;-68
2024/04/02 10:32:22;;;;;;;;;;;;;;;5.28;53.48;94738.03;4935946;28;19926;-68
2024/04/02 10:34:47;;;;;;;;;;;;;;;5.59;53.41;94729.41;4932386;28;20214;-69
2024/04/02 10:37:13;;;;;;;;;;;;;;;4.94;53.38;94742.47;4919700;29;19933;-69
2024/04/02 10:39:38;;;;;;;;;;;;;;;5.36;53.67;94735.38;4919467;28;20495;-69
2024/04/02 10:42:03;;;;;;;;;;;;;;;6.31;52.26;94732.97;4920132;29;20488;-69
2024/04/02 10:44:28;;;;;;;;;;;;;;;5.21;56.92;94729.97;4917088;29;19935;-69
2024/04/02 10:46:53;;;;;;;;;;;;;;;5.00;57.17;94748.91;4914506;28;20237;-69
2024/04/02 10:49:19;;;;;;;;;;;;;;;4.04;65.91;94745.53;4921271;29;19937;-69
2024/04/02 10:51:44;;;;;;;;;;;;;;;3.47;65.31;94765.31;4933279;28;20087;-69
2024/04/02 10:54:09;;;;;;;;;;;;;;;3.01;69.86;94747.88;4942353;28;20467;-69
2024/04/02 10:56:35;;;;;;;;;;;;;;;2.29;70.41;94759.19;4921208;28;20445;-69
2024/04/02 10:59:00;;;;;;;;;;;;;;;2.70;73.22;94748.25;4931183;28;19926;-69
2024/04/02 11:01:25;;;;;;;;;;;;;;;2.75;71.85;94759.13;4958068;28;19930;-69
2024/04/02 11:03:51;;;;;;;;;;;;;;;2.46;73.18;94749.66;4945959;28;19968;-68
2024/04/02 11:06:16;;;;;;;;;;;;;;;2.22;72.33;94752.84;4939484;28;19927;-69
2024/04/02 11:08:43;;;;;;;;;;;;;;;2.71;69.59;94749.06;4919775;29;20031;-69
2024/04/02 11:11:16;;;;;;;;;;;;;;;3.03;69.54;94763.50;4920237;28;20281;-69
2024/04/02 11:13:42;;;;;;;;;;;;;;;3.89;69.52;94755.88;4919313;29;20161;-68
2024/04/02 11:16:08;;;;;;;;;;;;;;;3.93;70.17;94749.28;4918698;28;20041;-68
2024/04/02 11:18:34;;;;;;;;;;;;;;;4.64;65.12;94758.75;4919554;28;20012;-68
2024/04/02 11:21:00;;;;;;;;;;;;;;;4.19;65.92;94753.66;4919113;29;20463;-69
2024/04/02 11:26:14;;;;;;;;;;;;;;;3.58;65.78;94753.72;4919703;29;20253;-69
2024/04/02 11:28:39;;;;;;;;;;;;;;;3.86;66.80;94766.72;4919856;29;19974;-69
2024/04/02 11:31:04;;;;;;;;;;;;;;;3.42;69.28;94762.28;4927886;28;19926;-69
2024/04/02 11:33:29;;;;;;;;;;;;;;;4.09;67.58;94752.97;4939538;28;19942;-69
2024/04/02 11:35:55;;;;;;;;;;;;;;;3.94;68.40;94768.53;4936731;28;20345;-69
2024/04/02 11:38:21;;;;;;;;;;;;;;;2.91;70.78;94765.53;4929873;28;20081;-69
2024/04/02 11:40:46;;;;;;;;;;;;;;;2.48;71.00;94765.25;4912565;29;19966;-69
2024/04/02 11:43:11;;;;;;;;;;;;;;;2.69;75.90;94745.78;4917752;28;19926;-69
2024/04/02 11:45:36;;;;;;;;;;;;;;;3.39;72.07;94762.59;4918412;29;20042;-68
2024/04/02 11:48:03;;;;;;;;;;;;;;;4.29;68.03;94755.34;4940852;28;19930;-68
2024/04/02 11:50:28;;;;;;;;;;;;;;;3.73;68.03;94764.50;4935672;28;20243;-69
2024/04/02 11:52:54;;;;;;;;;;;;;;;4.03;67.82;94764.97;4919639;29;20325;-69
2024/04/02 11:55:19;;;;;;;;;;;;;;;4.44;65.28;94761.66;4930358;28;19927;-68
2024/04/02 12:00:28;;;;;;;;;;;;;;;3.70;69.09;94774.53;4918848;28;19934;-68
2024/04/02 12:02:53;;;;;;;;;;;;;;;3.21;71.71;94768.72;4920432;28;20308;-68
2024/04/02 12:05:18;;;;;;;;;;;;;;;4.12;70.16;94770.28;4921416;29;20334;-68
2024/04/02 12:07:44;;;;;;;;;;;;;;;3.40;67.75;94772.13;4936782;28;19930;-68
2024/04/02 12:10:10;;;;;;;;;;;;;;;4.42;65.00;94768.91;4946458;28;20065;-68
2024/04/02 12:12:35;;;;;;;;;;;;;;;4.11;66.43;94756.28;4953008;28;19933;-68
2024/04/02 12:15:01;;;;;;;;;;;;;;;4.10;65.23;94752.00;4955053;28;19965;-68
2024/04/02 12:17:26;;;;;;;;;;;;;;;4.27;66.06;94747.59;4951646;28;19929;-68
2024/04/02 12:19:52;;;;;;;;;;;;;;;4.05;64.07;94757.72;4953442;28;20096;-68
2024/04/02 12:22:18;;;;;;;;;;;;;;;4.51;61.55;94753.94;4951800;28;20414;-68
2024/04/02 12:24:43;;;;;;;;;;;;;;;4.45;61.55;94776.50;4951727;28;19926;-68
2024/04/02 12:27:08;;;;;;;;;;;;;;;3.76;63.22;94771.25;4948580;28;19997;-68
2024/04/02 12:29:34;;;;;;;;;;;;;;;3.43;63.15;94775.31;4943234;28;20033;-68
2024/04/02 12:31:59;;;;;;;;;;;;;;;3.67;64.51;94758.03;4928090;28;20281;-68
2024/04/02 12:34:26;;;;;;;;;;;;;;;3.45;66.41;94788.34;4922289;28;20007;-68
2024/04/02 12:36:52;;;;;;;;;;;;;;;3.12;67.33;94775.72;4923253;29;19961;-68
2024/04/02 12:39:17;;;;;;;;;;;;;;;2.59;70.09;94798.41;4937709;28;19966;-69
2024/04/02 12:41:42;;;;;;;;;;;;;;;2.32;72.55;94782.53;4941848;28;19985;-69
2024/04/02 12:44:07;;;;;;;;;;;;;;;2.69;70.24;94793.09;4942062;28;19957;-69
2024/04/02 12:46:33;;;;;;;;;;;;;;;3.11;69.29;94786.41;4941149;28;19926;-69
2024/04/02 12:48:58;;;;;;;;;;;;;;;3.34;68.25;94776.22;4939182;28;19922;-68
2024/04/02 12:51:24;;;;;;;;;;;;;;;3.48;68.46;94780.16;4940388;28;20581;-68
2024/04/02 12:53:49;;;;;;;;;;;;;;;3.72;65.28;94769.91;4941223;29;19950;-68